createdAt,value
2022-11-05T00:03:28.821Z,9.74
2022-11-05T00:06:38.195Z,9.71
2022-11-05T00:09:31.861Z,9.68
2022-11-05T00:12:41.303Z,9.65
2022-11-05T00:15:51.356Z,9.62
2022-11-05T00:18:45.438Z,9.60
2022-11-05T00:21:56.515Z,9.56
2022-11-05T00:25:06.160Z,9.54
2022-11-05T00:28:03.736Z,9.51
2022-11-05T00:31:01.440Z,9.49
2022-11-05T00:33:53.634Z,9.48
2022-11-05T00:36:45.289Z,9.46
2022-11-05T00:39:37.430Z,9.44
2022-11-05T00:42:47.023Z,9.43
2022-11-05T00:45:40.290Z,9.41
2022-11-05T00:48:50.132Z,9.38
2022-11-05T00:51:42.149Z,9.36
2022-11-05T00:54:34.193Z,9.33
2022-11-05T00:57:26.678Z,9.32
2022-11-05T01:00:20.432Z,9.31
2022-11-05T01:03:14.943Z,9.31
2022-11-05T01:06:14.068Z,9.28
2022-11-05T01:09:07.033Z,9.29
2022-11-05T01:11:59.284Z,9.28
2022-11-05T01:14:51.342Z,9.27
2022-11-05T01:17:43.345Z,9.27
2022-11-05T01:20:35.722Z,9.26
2022-11-05T01:23:27.307Z,9.27
2022-11-05T01:26:20.120Z,9.27
2022-11-05T01:29:14.695Z,9.28
2022-11-05T01:32:07.395Z,9.29
2022-11-05T01:34:57.994Z,9.30
2022-11-05T01:37:50.421Z,9.31
2022-11-05T01:40:46.357Z,9.33
2022-11-05T01:43:51.576Z,9.35
2022-11-05T01:46:47.775Z,9.37
2022-11-05T01:49:40.921Z,9.39
2022-11-05T01:52:36.510Z,9.40
2022-11-05T01:55:33.076Z,9.42
2022-11-05T01:58:32.341Z,9.44
2022-11-05T02:01:24.357Z,9.46
2022-11-05T02:04:22.741Z,9.47
2022-11-05T02:07:15.557Z,9.50
2022-11-05T02:10:11.089Z,9.51
2022-11-05T02:13:03.971Z,9.53
2022-11-05T02:16:04.762Z,9.54
2022-11-05T02:19:08.101Z,9.57
2022-11-05T02:22:22.863Z,9.57
2022-11-05T02:25:34.352Z,9.58
2022-11-05T02:28:50.138Z,9.60
2022-11-05T02:31:47.704Z,9.62
2022-11-05T02:34:51.001Z,9.63
2022-11-05T02:37:47.035Z,9.63
2022-11-05T02:40:47.500Z,9.64
2022-11-05T02:43:52.892Z,9.65
2022-11-05T02:46:55.988Z,9.67
2022-11-05T02:49:55.498Z,9.69
2022-11-05T02:52:56.431Z,9.69
2022-11-05T02:55:52.867Z,9.71
2022-11-05T02:58:45.220Z,9.72
2022-11-05T03:01:39.426Z,9.73
2022-11-05T03:04:33.454Z,9.74
2022-11-05T03:07:39.621Z,9.75
2022-11-05T03:10:44.629Z,9.75
2022-11-05T03:13:46.933Z,9.75
2022-11-05T03:16:43.138Z,9.75
2022-11-05T03:19:40.523Z,9.76
2022-11-05T03:22:41.666Z,9.75
2022-11-05T03:25:39.024Z,9.74
2022-11-05T03:28:35.888Z,9.75
2022-11-05T03:31:28.709Z,9.76
2022-11-05T03:34:23.036Z,9.77
2022-11-05T03:37:16.434Z,9.77
2022-11-05T03:40:13.514Z,9.78
2022-11-05T03:43:08.375Z,9.79
2022-11-05T03:46:06.303Z,9.77
2022-11-05T03:49:00.625Z,9.77
2022-11-05T03:51:59.050Z,9.76
2022-11-05T03:54:51.332Z,9.77
2022-11-05T03:57:48.849Z,9.76
2022-11-05T04:00:41.286Z,9.77
2022-11-05T04:03:36.748Z,9.75
2022-11-05T04:06:46.650Z,9.76
2022-11-05T04:09:57.114Z,9.76
2022-11-05T04:13:07.515Z,9.77
2022-11-05T04:16:18.451Z,9.77
2022-11-05T04:19:10.697Z,9.78
2022-11-05T04:22:20.332Z,9.79
2022-11-05T04:25:13.848Z,9.78
2022-11-05T04:28:06.279Z,9.80
2022-11-05T04:30:59.088Z,9.79
2022-11-05T04:33:51.213Z,9.80
2022-11-05T04:36:41.695Z,9.80
2022-11-05T04:39:34.366Z,9.80
2022-11-05T04:42:26.808Z,9.80
2022-11-05T04:45:19.249Z,9.80
2022-11-05T04:48:11.686Z,9.81
2022-11-05T04:51:04.792Z,9.81
2022-11-05T04:53:56.972Z,9.80
2022-11-05T04:56:49.045Z,9.81
2022-11-05T04:59:40.018Z,9.81
2022-11-05T05:02:32.101Z,9.78
2022-11-05T05:05:23.464Z,9.78
2022-11-05T05:08:16.006Z,9.77
2022-11-05T05:11:07.003Z,9.77
2022-11-05T05:13:59.152Z,9.77
2022-11-05T05:16:51.924Z,9.77
2022-11-05T05:20:01.848Z,9.77
2022-11-05T05:22:58.182Z,9.76
2022-11-05T05:25:50.719Z,9.77
2022-11-05T05:28:42.683Z,9.77
2022-11-05T05:31:35.827Z,9.76
2022-11-05T05:34:27.794Z,9.78
2022-11-05T05:37:19.430Z,9.77
2022-11-05T05:40:14.324Z,9.78
2022-11-05T05:43:06.757Z,9.79
2022-11-05T05:45:59.041Z,9.80
2022-11-05T05:48:52.457Z,9.83
2022-11-05T05:51:44.544Z,9.84
2022-11-05T05:54:42.260Z,9.84
2022-11-05T05:57:36.201Z,9.88
2022-11-05T06:00:26.549Z,9.93
2022-11-05T06:03:18.757Z,9.95
2022-11-05T06:06:14.209Z,9.99
2022-11-05T06:09:06.265Z,10.06
2022-11-05T06:11:57.877Z,10.09
2022-11-05T06:14:51.790Z,10.15
2022-11-05T06:17:46.123Z,10.19
2022-11-05T06:20:38.110Z,10.23
2022-11-05T06:23:31.217Z,10.27
2022-11-05T06:26:24.226Z,10.34
2022-11-05T06:29:16.696Z,10.39
2022-11-05T06:32:09.020Z,10.46
2022-11-05T06:35:01.094Z,10.51
2022-11-05T06:37:53.527Z,10.58
2022-11-05T06:40:45.976Z,10.64
2022-11-05T06:43:35.955Z,10.69
2022-11-05T06:46:27.987Z,10.74
2022-11-05T06:49:20.284Z,10.80
2022-11-05T06:52:12.388Z,10.86
2022-11-05T06:55:04.899Z,10.93
2022-11-05T06:57:58.670Z,11.00
2022-11-05T07:00:51.655Z,11.07
2022-11-05T07:03:45.325Z,11.15
2022-11-05T07:06:37.310Z,11.22
2022-11-05T07:09:30.261Z,11.29
2022-11-05T07:12:22.207Z,11.40
2022-11-05T07:15:15.790Z,11.47
2022-11-05T07:18:09.551Z,11.55
2022-11-05T07:21:02.395Z,11.63
2022-11-05T07:23:54.279Z,11.71
2022-11-05T07:26:47.372Z,11.79
2022-11-05T07:29:39.929Z,11.87
2022-11-05T07:32:32.984Z,11.94
2022-11-05T07:35:27.185Z,12.02
2022-11-05T07:38:22.942Z,12.10
2022-11-05T07:41:15.831Z,12.15
2022-11-05T07:44:07.872Z,12.20
2022-11-05T07:47:00.110Z,12.27
2022-11-05T07:49:50.498Z,12.32
2022-11-05T07:52:42.391Z,12.37
2022-11-05T07:55:35.261Z,12.42
2022-11-05T07:58:27.576Z,12.47
2022-11-05T08:01:19.707Z,12.53
2022-11-05T08:04:12.303Z,12.57
2022-11-05T08:07:04.332Z,12.62
2022-11-05T08:09:56.535Z,12.67
2022-11-05T08:12:48.798Z,12.76
2022-11-05T08:15:41.070Z,12.81
2022-11-05T08:18:32.861Z,12.86
2022-11-05T08:21:24.550Z,12.91
2022-11-05T08:24:17.132Z,12.96
2022-11-05T08:27:07.524Z,13.00
2022-11-05T08:30:00.028Z,13.06
2022-11-05T08:32:52.905Z,13.14
2022-11-05T08:35:45.461Z,13.21
2022-11-05T08:38:37.761Z,13.27
2022-11-05T08:41:30.141Z,13.34
2022-11-05T08:44:22.378Z,13.40
2022-11-05T08:47:14.642Z,13.47
2022-11-05T08:50:07.308Z,13.53
2022-11-05T08:53:00.600Z,13.61
2022-11-05T08:55:52.801Z,13.70
2022-11-05T08:58:46.946Z,13.74
2022-11-05T09:01:42.518Z,13.82
2022-11-05T09:04:35.977Z,13.90
2022-11-05T09:07:32.628Z,13.97
2022-11-05T09:10:26.170Z,14.05
2022-11-05T09:13:20.327Z,14.12
2022-11-05T09:16:20.854Z,14.18
2022-11-05T09:19:13.380Z,14.25
2022-11-05T09:22:05.553Z,14.31
2022-11-05T09:24:58.383Z,14.39
2022-11-05T09:27:51.133Z,14.49
2022-11-05T09:30:48.890Z,14.56
2022-11-05T09:33:43.826Z,14.63
2022-11-05T09:36:36.224Z,14.73
2022-11-05T09:39:29.283Z,14.85
2022-11-05T09:42:26.237Z,15.00
2022-11-05T09:45:21.692Z,15.13
2022-11-05T09:48:22.413Z,15.25
2022-11-05T09:51:23.689Z,15.40
2022-11-05T09:54:17.896Z,15.54
2022-11-05T09:57:18.053Z,15.65
2022-11-05T10:00:17.472Z,15.77
2022-11-05T10:03:14.199Z,15.90
2022-11-05T10:06:14.150Z,16.01
2022-11-05T10:09:13.537Z,16.12
2022-11-05T10:12:12.691Z,16.22
2022-11-05T10:15:12.133Z,16.36
2022-11-05T10:18:14.254Z,16.47
2022-11-05T10:21:07.980Z,16.58
2022-11-05T10:24:00.953Z,16.64
2022-11-05T10:26:55.711Z,16.71
2022-11-05T10:29:48.333Z,16.76
2022-11-05T10:32:42.770Z,16.81
2022-11-05T10:35:42.030Z,16.84
2022-11-05T10:38:49.911Z,16.88
2022-11-05T10:42:24.355Z,16.94
2022-11-05T10:45:27.031Z,16.98
2022-11-05T10:48:53.380Z,17.06
2022-11-05T10:52:07.006Z,17.12
2022-11-05T10:55:11.317Z,17.19
2022-11-05T10:58:24.914Z,17.26
2022-11-05T11:01:16.993Z,17.33
2022-11-05T11:04:16.299Z,17.43
2022-11-05T11:07:20.284Z,17.54
2022-11-05T11:10:23.101Z,17.65
2022-11-05T11:13:24.501Z,17.73
2022-11-05T11:16:24.473Z,17.85
2022-11-05T11:19:29.085Z,17.96
2022-11-05T11:22:23.562Z,18.05
2022-11-05T11:25:28.584Z,18.16
2022-11-05T11:28:24.618Z,18.25
2022-11-05T11:31:19.236Z,18.35
2022-11-05T11:34:27.077Z,18.44
2022-11-05T11:37:24.609Z,18.50
2022-11-05T11:40:22.005Z,18.57
2022-11-05T11:43:24.603Z,18.62
2022-11-05T11:46:21.481Z,18.71
2022-11-05T11:49:34.455Z,18.76
2022-11-05T11:52:33.339Z,18.81
2022-11-05T11:55:27.877Z,18.83
2022-11-05T11:58:20.122Z,18.87
2022-11-05T12:01:49.088Z,18.91
2022-11-05T12:05:04.746Z,18.93
2022-11-05T12:07:59.432Z,18.97
2022-11-05T12:11:04.642Z,19.05
2022-11-05T12:14:04.482Z,19.13
2022-11-05T12:17:19.922Z,19.19
2022-11-05T12:20:35.544Z,19.25
2022-11-05T12:23:50.630Z,19.29
2022-11-05T12:26:54.911Z,19.30
2022-11-05T12:29:59.636Z,19.33
2022-11-05T12:33:20.454Z,19.35
2022-11-05T12:36:33.744Z,19.37
2022-11-05T12:39:50.905Z,19.36
2022-11-05T12:42:57.673Z,19.37
2022-11-05T12:45:58.105Z,19.39
2022-11-05T12:49:15.942Z,19.40
2022-11-05T12:52:40.072Z,19.40
2022-11-05T12:55:37.073Z,19.38
2022-11-05T12:58:34.323Z,19.39
2022-11-05T13:01:34.257Z,19.35
2022-11-05T13:04:42.078Z,19.34
2022-11-05T13:07:39.200Z,19.29
2022-11-05T13:10:37.655Z,19.26
2022-11-05T13:13:38.490Z,19.23
2022-11-05T13:16:35.450Z,19.18
2022-11-05T13:19:31.028Z,19.14
2022-11-05T13:22:37.053Z,19.09
2022-11-05T13:25:32.713Z,19.03
2022-11-05T13:28:38.717Z,18.97
2022-11-05T13:31:36.393Z,18.92
2022-11-05T13:34:33.440Z,18.87
2022-11-05T13:37:50.859Z,18.82
2022-11-05T13:40:56.202Z,18.76
2022-11-05T13:44:03.799Z,18.69
2022-11-05T13:47:17.332Z,18.63
2022-11-05T13:50:54.136Z,18.58
2022-11-05T13:54:23.847Z,18.52
2022-11-05T13:57:36.518Z,18.46
2022-11-05T14:00:35.137Z,18.43
2022-11-05T14:03:28.457Z,18.40
2022-11-05T14:06:27.769Z,18.38
2022-11-05T14:09:26.052Z,18.33
2022-11-05T14:12:26.646Z,18.28
2022-11-05T14:15:25.869Z,18.26
2022-11-05T14:18:40.073Z,18.23
2022-11-05T14:21:51.237Z,18.20
2022-11-05T14:24:47.482Z,18.15
2022-11-05T14:27:56.293Z,18.11
2022-11-05T14:30:50.654Z,18.08
2022-11-05T14:33:55.518Z,18.03
2022-11-05T14:37:03.522Z,17.97
2022-11-05T14:39:57.275Z,17.91
2022-11-05T14:42:53.210Z,17.85
2022-11-05T14:45:55.383Z,17.81
2022-11-05T14:48:52.774Z,17.73
2022-11-05T14:51:49.374Z,17.67
2022-11-05T14:54:46.999Z,17.62
2022-11-05T14:58:07.807Z,17.55
2022-11-05T15:01:02.200Z,17.50
2022-11-05T15:04:26.823Z,17.44
2022-11-05T15:07:38.892Z,17.38
2022-11-05T15:10:32.953Z,17.33
2022-11-05T15:13:32.938Z,17.27
2022-11-05T15:16:31.356Z,17.20
2022-11-05T15:19:30.820Z,17.18
2022-11-05T15:22:38.280Z,17.14
2022-11-05T15:25:36.387Z,17.09
2022-11-05T15:28:35.585Z,17.04
2022-11-05T15:31:42.139Z,17.00
2022-11-05T15:34:36.057Z,16.97
2022-11-05T15:37:29.169Z,16.93
2022-11-05T15:40:29.353Z,16.90
2022-11-05T15:43:21.754Z,16.87
2022-11-05T15:46:17.678Z,16.83
2022-11-05T15:49:11.120Z,16.79
2022-11-05T15:52:03.380Z,16.76
2022-11-05T15:55:22.858Z,16.70
2022-11-05T15:58:15.092Z,16.67
2022-11-05T16:01:08.799Z,16.62
2022-11-05T16:04:09.788Z,16.59
2022-11-05T16:07:10.235Z,16.56
2022-11-05T16:10:07.381Z,16.54
2022-11-05T16:13:31.756Z,16.51
2022-11-05T16:16:34.210Z,16.46
2022-11-05T16:19:42.869Z,16.41
2022-11-05T16:22:53.689Z,16.38
2022-11-05T16:25:47.337Z,16.34
2022-11-05T16:28:39.547Z,16.31
2022-11-05T16:31:34.041Z,16.27
2022-11-05T16:34:32.085Z,16.24
2022-11-05T16:37:25.803Z,16.21
2022-11-05T16:40:21.295Z,16.18
2022-11-05T16:43:22.183Z,16.16
2022-11-05T16:46:15.773Z,16.12
2022-11-05T16:49:08.042Z,16.10
2022-11-05T16:52:02.327Z,16.08
2022-11-05T16:54:54.344Z,16.05
2022-11-05T16:57:45.907Z,16.04
2022-11-05T17:00:38.217Z,16.00
2022-11-05T17:03:30.328Z,15.95
2022-11-05T17:06:23.811Z,15.94
2022-11-05T17:09:15.539Z,15.92
2022-11-05T17:12:08.336Z,15.90
2022-11-05T17:15:00.385Z,15.89
2022-11-05T17:17:51.020Z,15.87
2022-11-05T17:20:48.119Z,15.84
2022-11-05T17:23:40.928Z,15.83
2022-11-05T17:26:33.874Z,15.82
2022-11-05T17:29:27.548Z,15.80
2022-11-05T17:32:20.068Z,15.81
2022-11-05T17:35:14.398Z,15.81
2022-11-05T17:38:06.917Z,15.81
2022-11-05T17:40:59.566Z,15.81
2022-11-05T17:43:54.576Z,15.80
2022-11-05T17:46:46.700Z,15.80
2022-11-05T17:49:38.934Z,15.80
2022-11-05T17:52:32.368Z,15.80
2022-11-05T17:55:24.316Z,15.80
2022-11-05T17:58:17.696Z,15.80
2022-11-05T18:01:26.200Z,15.79
2022-11-05T18:04:18.955Z,15.79
2022-11-05T18:07:11.018Z,15.78
2022-11-05T18:10:03.108Z,15.75
2022-11-05T18:12:55.427Z,15.75
2022-11-05T18:15:47.350Z,15.73
2022-11-05T18:18:39.559Z,15.71
2022-11-05T18:21:32.385Z,15.69
2022-11-05T18:24:25.004Z,15.69
2022-11-05T18:27:17.024Z,15.68
2022-11-05T18:30:14.250Z,15.66
2022-11-05T18:33:06.476Z,15.65
2022-11-05T18:35:59.293Z,15.64
2022-11-05T18:38:53.018Z,15.65
2022-11-05T18:41:45.986Z,15.64
2022-11-05T18:44:39.392Z,15.63
2022-11-05T18:47:33.679Z,15.60
2022-11-05T18:50:26.418Z,15.59
2022-11-05T18:53:18.699Z,15.59
2022-11-05T18:56:16.456Z,15.57
2022-11-05T18:59:35.301Z,15.57
2022-11-05T19:02:20.856Z,15.57
2022-11-05T19:05:28.425Z,15.55
2022-11-05T19:08:21.654Z,15.54
2022-11-05T19:11:15.839Z,15.55
2022-11-05T19:14:10.183Z,15.54
2022-11-05T19:17:02.626Z,15.53
2022-11-05T19:19:55.284Z,15.52
2022-11-05T19:22:48.941Z,15.51
2022-11-05T19:25:40.345Z,15.49
2022-11-05T19:28:33.005Z,15.49
2022-11-05T19:31:26.567Z,15.48
2022-11-05T19:34:19.367Z,15.49
2022-11-05T19:37:12.599Z,15.48
2022-11-05T19:40:04.817Z,15.47
2022-11-05T19:42:57.144Z,15.45
2022-11-05T19:45:49.087Z,15.44
2022-11-05T19:48:42.252Z,15.42
2022-11-05T19:51:35.198Z,15.42
2022-11-05T19:54:28.661Z,15.43
2022-11-05T19:57:21.310Z,15.42
2022-11-05T20:00:16.361Z,15.42
2022-11-05T20:03:09.623Z,15.38
2022-11-05T20:06:08.900Z,15.37
2022-11-05T20:12:15.260Z,15.33
2022-11-05T20:15:09.477Z,15.32
2022-11-05T20:18:01.985Z,15.29
2022-11-05T20:21:04.142Z,15.29
2022-11-05T20:23:59.472Z,15.26
2022-11-05T20:26:52.299Z,15.25
2022-11-05T20:29:44.926Z,15.24
2022-11-05T20:32:37.092Z,15.22
2022-11-05T20:35:30.867Z,15.22
2022-11-05T20:38:22.853Z,15.20
2022-11-05T20:41:16.041Z,15.20
2022-11-05T20:44:08.405Z,15.19
2022-11-05T20:47:00.737Z,15.18
2022-11-05T20:49:53.462Z,15.16
2022-11-05T20:52:45.485Z,15.15
2022-11-05T20:55:44.139Z,15.14
2022-11-05T20:58:37.319Z,15.11
2022-11-05T21:01:30.754Z,15.11
2022-11-05T21:04:23.541Z,15.10
2022-11-05T21:07:15.822Z,15.08
2022-11-05T21:10:07.021Z,15.07
2022-11-05T21:12:59.356Z,15.04
2022-11-05T21:15:55.710Z,15.04
2022-11-05T21:18:48.534Z,15.03
2022-11-05T21:21:42.118Z,15.02
2022-11-05T21:24:35.761Z,15.01
2022-11-05T21:27:28.820Z,15.02
2022-11-05T21:30:20.955Z,15.01
2022-11-05T21:33:13.704Z,15.01
2022-11-05T21:36:12.505Z,14.99
2022-11-05T21:39:09.100Z,14.99
2022-11-05T21:42:05.875Z,14.98
2022-11-05T21:45:00.564Z,14.97
2022-11-05T21:47:53.164Z,14.98
2022-11-05T21:51:02.981Z,14.96
2022-11-05T21:54:13.241Z,14.95
2022-11-05T21:57:22.880Z,14.95
2022-11-05T22:00:16.864Z,14.93
2022-11-05T22:03:09.078Z,14.93
2022-11-05T22:06:01.762Z,14.92
2022-11-05T22:08:53.884Z,14.91
2022-11-05T22:11:45.498Z,14.91
2022-11-05T22:14:37.401Z,14.90
2022-11-05T22:17:27.719Z,14.90
2022-11-05T22:20:20.341Z,14.88
2022-11-05T22:23:11.382Z,14.86
2022-11-05T22:26:04.033Z,14.85
2022-11-05T22:28:57.557Z,14.85
2022-11-05T22:31:49.363Z,14.85
2022-11-05T22:34:41.120Z,14.85
2022-11-05T22:37:32.926Z,14.85
2022-11-05T22:40:24.801Z,14.83
2022-11-05T22:43:16.482Z,14.86
2022-11-05T22:46:11.370Z,14.85
2022-11-05T22:49:04.206Z,14.84
2022-11-05T22:52:06.846Z,14.84
2022-11-05T22:54:59.147Z,14.83
2022-11-05T22:57:51.001Z,14.82
2022-11-05T23:00:43.351Z,14.83
2022-11-05T23:03:36.914Z,14.82
2022-11-05T23:06:48.301Z,14.79
2022-11-05T23:09:57.746Z,14.83
2022-11-05T23:12:53.455Z,14.81
2022-11-05T23:16:14.574Z,14.82
2022-11-05T23:19:24.834Z,14.83
2022-11-05T23:22:35.708Z,14.83
2022-11-05T23:25:27.738Z,14.83
2022-11-05T23:28:21.842Z,14.81
2022-11-05T23:31:32.486Z,14.82
2022-11-05T23:34:25.094Z,14.81
2022-11-05T23:37:35.389Z,14.81
2022-11-05T23:40:29.831Z,14.80
2022-11-05T23:43:39.731Z,14.80
2022-11-05T23:46:49.372Z,14.78
2022-11-05T23:49:42.000Z,14.78
2022-11-05T23:52:34.052Z,14.78
2022-11-05T23:55:27.105Z,14.77
2022-11-05T23:58:20.341Z,14.78
